createdAt,value
2022-10-26T00:02:14.991Z,96744.88
2022-10-26T00:05:11.891Z,96739.56
2022-10-26T00:08:09.075Z,96729.19
2022-10-26T00:11:07.093Z,96732.91
2022-10-26T00:14:03.946Z,96734.25
2022-10-26T00:17:00.762Z,96731.31
2022-10-26T00:19:57.865Z,96727.59
2022-10-26T00:22:54.647Z,96721.22
2022-10-26T00:25:56.889Z,96730.00
2022-10-26T00:28:55.660Z,96726.00
2022-10-26T00:31:52.474Z,96731.31
2022-10-26T00:34:49.267Z,96722.81
2022-10-26T00:37:46.265Z,96724.41
2022-10-26T00:40:44.382Z,96731.31
2022-10-26T00:43:41.259Z,96729.72
2022-10-26T00:46:39.093Z,96728.38
2022-10-26T00:49:36.175Z,96730.22
2022-10-26T00:52:33.658Z,96732.34
2022-10-26T00:55:37.293Z,96723.59
2022-10-26T00:58:35.685Z,96737.41
2022-10-26T01:01:36.155Z,96725.47
2022-10-26T01:04:34.058Z,96723.09
2022-10-26T01:07:31.421Z,96722.81
2022-10-26T01:10:28.912Z,96724.69
2022-10-26T01:13:31.380Z,96718.03
2022-10-26T01:16:52.261Z,96724.41
2022-10-26T01:20:26.605Z,96719.59
2022-10-26T01:23:59.781Z,96709.56
2022-10-26T01:27:12.552Z,96709.25
2022-10-26T01:30:25.254Z,96706.34
2022-10-26T01:33:35.086Z,96704.75
2022-10-26T01:37:00.053Z,96701.56
2022-10-26T01:40:27.681Z,96697.59
2022-10-26T01:43:28.426Z,96696.78
2022-10-26T01:46:27.164Z,96691.22
2022-10-26T01:49:32.588Z,96693.31
2022-10-26T01:52:29.587Z,96688.53
2022-10-26T01:55:50.996Z,96688.81
2022-10-26T01:59:09.858Z,96693.06
2022-10-26T02:02:51.192Z,96688.31
2022-10-26T02:06:41.106Z,96693.34
2022-10-26T02:10:06.284Z,96682.69
2022-10-26T02:13:24.673Z,96676.59
2022-10-26T02:16:48.951Z,96672.06
2022-10-26T02:20:08.938Z,96674.69
2022-10-26T02:23:08.118Z,96671.53
2022-10-26T02:26:10.176Z,96677.13
2022-10-26T02:29:13.858Z,96673.13
2022-10-26T02:32:12.084Z,96684.03
2022-10-26T02:35:09.714Z,96685.09
2022-10-26T02:38:12.118Z,96675.81
2022-10-26T02:41:10.671Z,96676.88
2022-10-26T02:44:14.710Z,96673.38
2022-10-26T02:47:12.078Z,96682.19
2022-10-26T02:50:09.764Z,96681.66
2022-10-26T02:53:50.881Z,96669.94
2022-10-26T02:57:10.980Z,96674.72
2022-10-26T03:00:16.505Z,96671.53
2022-10-26T03:03:14.632Z,96666.22
2022-10-26T03:06:11.495Z,96661.94
2022-10-26T03:09:08.317Z,96662.72
2022-10-26T03:12:05.567Z,96656.38
2022-10-26T03:15:04.088Z,96657.16
2022-10-26T03:18:01.087Z,96645.94
2022-10-26T03:20:58.001Z,96656.09
2022-10-26T03:23:55.094Z,96651.56
2022-10-26T03:26:51.931Z,96658.19
2022-10-26T03:29:48.927Z,96653.59
2022-10-26T03:32:45.730Z,96658.69
2022-10-26T03:35:42.703Z,96659.47
2022-10-26T03:38:39.566Z,96665.88
2022-10-26T03:41:36.380Z,96654.69
2022-10-26T03:44:33.198Z,96655.19
2022-10-26T03:47:30.058Z,96653.91
2022-10-26T03:50:26.926Z,96655.19
2022-10-26T03:53:23.852Z,96653.03
2022-10-26T03:56:20.656Z,96660.75
2022-10-26T03:59:17.463Z,96647.94
2022-10-26T04:02:15.206Z,96647.41
2022-10-26T04:05:12.291Z,96652.53
2022-10-26T04:08:09.398Z,96647.69
2022-10-26T04:11:06.520Z,96652.72
2022-10-26T04:14:03.359Z,96641.50
2022-10-26T04:17:00.310Z,96651.63
2022-10-26T04:19:57.140Z,96650.06
2022-10-26T04:22:59.577Z,96657.22
2022-10-26T04:25:56.383Z,96646.72
2022-10-26T04:28:53.663Z,96651.88
2022-10-26T04:31:50.480Z,96645.50
2022-10-26T04:34:47.315Z,96644.13
2022-10-26T04:37:44.242Z,96660.38
2022-10-26T04:40:41.250Z,96640.69
2022-10-26T04:43:38.069Z,96647.59
2022-10-26T04:46:34.988Z,96644.41
2022-10-26T04:49:31.809Z,96640.84
2022-10-26T04:52:28.635Z,96651.81
2022-10-26T04:55:25.652Z,96652.00
2022-10-26T04:58:22.457Z,96646.72
2022-10-26T05:01:19.407Z,96655.81
2022-10-26T05:04:16.397Z,96644.91
2022-10-26T05:07:13.213Z,96645.94
2022-10-26T05:10:10.638Z,96660.84
2022-10-26T05:13:09.266Z,96641.59
2022-10-26T05:16:06.513Z,96653.84
2022-10-26T05:19:03.461Z,96651.69
2022-10-26T05:22:00.253Z,96661.56
2022-10-26T05:24:57.070Z,96656.50
2022-10-26T05:27:59.509Z,96657.28
2022-10-26T05:30:59.134Z,96663.34
2022-10-26T05:33:56.032Z,96657.22
2022-10-26T05:36:54.728Z,96660.97
2022-10-26T05:39:51.512Z,96662.25
2022-10-26T05:42:48.640Z,96657.94
2022-10-26T05:45:46.727Z,96661.69
2022-10-26T05:48:47.081Z,96663.78
2022-10-26T05:51:43.977Z,96660.88
2022-10-26T05:54:40.779Z,96669.09
2022-10-26T05:57:38.849Z,96661.69
2022-10-26T06:00:37.010Z,96666.66
2022-10-26T06:04:02.273Z,96669.28
2022-10-26T06:06:59.877Z,96660.22
2022-10-26T06:09:57.495Z,96664.56
2022-10-26T06:12:54.719Z,96668.72
2022-10-26T06:16:00.163Z,96667.41
2022-10-26T06:19:29.933Z,96670.88
2022-10-26T06:23:01.201Z,96669.22
2022-10-26T06:26:16.445Z,96672.66
2022-10-26T06:30:00.808Z,96679.50
2022-10-26T06:33:05.620Z,96670.41
2022-10-26T06:36:29.186Z,96681.84
2022-10-26T06:39:35.386Z,96694.06
2022-10-26T06:42:32.791Z,96690.03
2022-10-26T06:45:30.250Z,96693.50
2022-10-26T06:48:29.463Z,96678.25
2022-10-26T06:51:29.179Z,96682.44
2022-10-26T06:54:51.859Z,96689.50
2022-10-26T06:57:50.142Z,96692.41
2022-10-26T07:00:50.996Z,96692.69
2022-10-26T07:03:47.862Z,96690.84
2022-10-26T07:06:44.725Z,96686.19
2022-10-26T07:09:41.596Z,96686.88
2022-10-26T07:12:38.831Z,96692.81
2022-10-26T07:15:37.713Z,96689.56
2022-10-26T07:18:34.492Z,96693.31
2022-10-26T07:21:31.309Z,96687.16
2022-10-26T07:24:29.367Z,96692.09
2022-10-26T07:27:26.219Z,96684.72
2022-10-26T07:30:23.102Z,96690.88
2022-10-26T07:33:20.003Z,96682.72
2022-10-26T07:36:17.076Z,96694.16
2022-10-26T07:39:13.937Z,96701.22
2022-10-26T07:42:10.755Z,96703.06
2022-10-26T07:45:08.061Z,96704.00
2022-10-26T07:48:05.461Z,96707.47
2022-10-26T07:51:03.235Z,96709.56
2022-10-26T07:54:00.193Z,96713.25
2022-10-26T07:56:58.186Z,96711.09
2022-10-26T07:59:55.502Z,96720.22
2022-10-26T08:02:52.511Z,96727.69
2022-10-26T08:05:51.341Z,96730.97
2022-10-26T08:08:48.699Z,96723.75
2022-10-26T08:11:45.769Z,96728.09
2022-10-26T08:14:43.662Z,96729.88
2022-10-26T08:17:40.840Z,96725.25
2022-10-26T08:20:37.662Z,96739.91
2022-10-26T08:23:34.626Z,96728.91
2022-10-26T08:26:31.516Z,96730.19
2022-10-26T08:29:28.457Z,96741.84
2022-10-26T08:32:25.683Z,96734.25
2022-10-26T08:35:22.537Z,96746.75
2022-10-26T08:38:19.457Z,96757.28
2022-10-26T08:41:16.365Z,96739.22
2022-10-26T08:44:41.702Z,96743.28
2022-10-26T08:47:46.463Z,96744.91
2022-10-26T08:50:56.554Z,96748.44
2022-10-26T08:54:14.242Z,96747.16
2022-10-26T08:57:35.674Z,96750.16
2022-10-26T09:00:32.696Z,96765.38
2022-10-26T09:03:29.526Z,96768.09
2022-10-26T09:07:11.080Z,96761.50
2022-10-26T09:10:41.280Z,96761.75
2022-10-26T09:14:06.067Z,96756.78
2022-10-26T09:17:21.226Z,96750.16
2022-10-26T09:20:55.122Z,96744.19
2022-10-26T09:24:16.011Z,96733.28
2022-10-26T09:27:28.226Z,96728.00
2022-10-26T09:30:25.145Z,96731.66
2022-10-26T09:33:26.527Z,96741.78
2022-10-26T09:36:23.371Z,96753.44
2022-10-26T09:39:40.758Z,96749.63
2022-10-26T09:43:16.841Z,96760.59
2022-10-26T09:46:24.625Z,96758.84
2022-10-26T09:49:33.010Z,96764.19
2022-10-26T09:52:29.892Z,96758.50
2022-10-26T09:55:27.792Z,96762.75
2022-10-26T09:58:31.586Z,96763.56
2022-10-26T10:01:38.508Z,96764.03
2022-10-26T10:04:47.738Z,96770.03
2022-10-26T10:07:44.557Z,96767.16
2022-10-26T10:10:59.517Z,96776.44
2022-10-26T10:14:10.074Z,96774.16
2022-10-26T10:17:21.921Z,96766.41
2022-10-26T10:20:31.087Z,96744.13
2022-10-26T10:23:57.461Z,96724.47
2022-10-26T10:27:25.101Z,96725.75
2022-10-26T10:30:28.552Z,96733.13
2022-10-26T10:33:40.633Z,96721.91
2022-10-26T10:36:39.633Z,96723.31
2022-10-26T10:39:40.944Z,96729.06
2022-10-26T10:42:40.926Z,96722.38
2022-10-26T10:45:38.824Z,96728.28
2022-10-26T10:48:38.655Z,96729.91
2022-10-26T10:51:39.555Z,96731.50
2022-10-26T10:54:39.487Z,96734.72
2022-10-26T10:58:16.033Z,96732.63
2022-10-26T11:01:22.451Z,96747.31
2022-10-26T11:05:08.969Z,96758.78
2022-10-26T11:08:43.599Z,96767.56
2022-10-26T11:11:54.037Z,96765.69
2022-10-26T11:15:02.019Z,96775.13
2022-10-26T11:18:16.196Z,96762.59
2022-10-26T11:21:25.203Z,96771.16
2022-10-26T11:24:40.097Z,96761.44
2022-10-26T11:27:46.164Z,96763.94
2022-10-26T11:30:52.332Z,96774.50
2022-10-26T11:34:19.919Z,96765.94
2022-10-26T11:37:45.318Z,96772.56
2022-10-26T11:41:14.483Z,96776.59
2022-10-26T11:44:16.039Z,96769.44
2022-10-26T11:47:22.586Z,96758.00
2022-10-26T11:50:29.086Z,96757.91
2022-10-26T11:53:35.974Z,96762.38
2022-10-26T11:56:40.472Z,96769.16
2022-10-26T11:59:45.688Z,96764.03
2022-10-26T12:02:48.232Z,96767.38
2022-10-26T12:05:51.752Z,96754.06
2022-10-26T12:08:59.551Z,96769.06
2022-10-26T12:12:11.234Z,96765.88
2022-10-26T12:16:01.743Z,96764.94
2022-10-26T12:19:02.463Z,96774.47
2022-10-26T12:22:00.146Z,96790.88
2022-10-26T12:25:15.444Z,96782.78
2022-10-26T12:28:37.766Z,96787.66
2022-10-26T12:31:37.634Z,96802.38
2022-10-26T12:34:40.361Z,96795.72
2022-10-26T12:37:38.179Z,96795.22
2022-10-26T12:40:43.455Z,96772.09
2022-10-26T12:46:47.896Z,96791.03
2022-10-26T12:50:06.381Z,96797.63
2022-10-26T12:53:12.678Z,96808.72
2022-10-26T12:56:16.760Z,96815.59
2022-10-26T13:00:00.163Z,96817.28
2022-10-26T13:03:36.141Z,96801.97
2022-10-26T13:06:59.847Z,96808.25
2022-10-26T13:10:11.286Z,96808.53
2022-10-26T13:13:08.972Z,96807.16
2022-10-26T13:16:10.286Z,96818.09
2022-10-26T13:19:32.508Z,96819.94
2022-10-26T13:22:29.767Z,96821.56
2022-10-26T13:25:30.554Z,96820.38
2022-10-26T13:28:37.652Z,96813.25
2022-10-26T13:31:53.663Z,96819.66
2022-10-26T13:34:51.603Z,96822.47
2022-10-26T13:37:52.070Z,96829.28
2022-10-26T13:40:50.261Z,96831.69
2022-10-26T13:43:47.978Z,96835.06
2022-10-26T13:46:46.631Z,96838.31
2022-10-26T13:49:47.854Z,96847.63
2022-10-26T13:52:54.027Z,96852.88
2022-10-26T13:56:03.898Z,96866.09
2022-10-26T13:59:12.493Z,96859.19
2022-10-26T14:02:24.945Z,96857.56
2022-10-26T14:05:23.132Z,96864.13
2022-10-26T14:08:21.221Z,96874.09
2022-10-26T14:11:22.869Z,96879.97
2022-10-26T14:14:38.354Z,96882.81
2022-10-26T14:17:35.741Z,96882.84
2022-10-26T14:20:32.725Z,96881.25
2022-10-26T14:23:36.336Z,96890.47
2022-10-26T14:26:41.522Z,96886.06
2022-10-26T14:29:38.533Z,96890.81
2022-10-26T14:32:36.957Z,96895.13
2022-10-26T14:35:36.166Z,96897.66
2022-10-26T14:38:51.535Z,96888.88
2022-10-26T14:41:50.996Z,96884.72
2022-10-26T14:44:49.224Z,96889.66
2022-10-26T14:47:50.046Z,96885.31
2022-10-26T14:51:02.475Z,96892.47
2022-10-26T14:54:01.193Z,96893.28
2022-10-26T14:56:58.412Z,96893.28
2022-10-26T15:00:15.490Z,96909.66
2022-10-26T15:03:17.333Z,96906.50
2022-10-26T15:06:45.036Z,96899.16
2022-10-26T15:09:51.130Z,96895.63
2022-10-26T15:12:48.042Z,96896.03
2022-10-26T15:15:49.411Z,96904.91
2022-10-26T15:18:52.645Z,96904.66
2022-10-26T15:21:52.294Z,96908.50
2022-10-26T15:24:54.257Z,96909.19
2022-10-26T15:27:51.797Z,96920.47
2022-10-26T15:31:11.330Z,96912.66
2022-10-26T15:34:14.664Z,96915.84
2022-10-26T15:37:11.513Z,96928.25
2022-10-26T15:40:08.712Z,96917.91
2022-10-26T15:43:05.546Z,96918.00
2022-10-26T15:46:02.409Z,96926.97
2022-10-26T15:49:05.179Z,96926.50
2022-10-26T15:52:02.176Z,96928.56
2022-10-26T15:54:59.155Z,96935.56
2022-10-26T15:57:56.087Z,96937.78
2022-10-26T16:00:53.020Z,96938.25
2022-10-26T16:03:50.892Z,96942.22
2022-10-26T16:06:47.780Z,96935.22
2022-10-26T16:09:44.689Z,96940.66
2022-10-26T16:12:41.791Z,96949.53
2022-10-26T16:15:39.118Z,96955.72
2022-10-26T16:18:36.009Z,96953.31
2022-10-26T16:21:33.029Z,96960.28
2022-10-26T16:24:34.304Z,96957.91
2022-10-26T16:27:32.754Z,96965.19
2022-10-26T16:30:30.829Z,96976.66
2022-10-26T16:33:27.989Z,96986.50
2022-10-26T16:36:24.823Z,96991.59
2022-10-26T16:39:21.690Z,97002.25
2022-10-26T16:42:18.537Z,97002.56
2022-10-26T16:45:16.136Z,97013.84
2022-10-26T16:48:16.046Z,97016.66
2022-10-26T16:51:19.860Z,97021.88
2022-10-26T16:54:16.830Z,97031.75
2022-10-26T16:57:13.685Z,97028.50
2022-10-26T17:00:11.014Z,97029.69
2022-10-26T17:03:07.819Z,97040.19
2022-10-26T17:06:07.752Z,97050.06
2022-10-26T17:09:04.603Z,97054.19
2022-10-26T17:12:02.238Z,97061.59
2022-10-26T17:15:01.485Z,97064.75
2022-10-26T17:17:58.517Z,97068.31
2022-10-26T17:20:55.385Z,97067.44
2022-10-26T17:23:52.284Z,97066.50
2022-10-26T17:26:49.119Z,97078.34
2022-10-26T17:29:45.937Z,97078.19
2022-10-26T17:32:42.758Z,97085.63
2022-10-26T17:35:39.623Z,97095.31
2022-10-26T17:38:42.034Z,97099.34
2022-10-26T17:41:38.904Z,97106.78
2022-10-26T17:44:38.967Z,97113.28
2022-10-26T17:47:36.013Z,97118.94
2022-10-26T17:50:32.954Z,97119.03
2022-10-26T17:53:30.294Z,97115.91
2022-10-26T17:56:30.983Z,97121.78
2022-10-26T17:59:27.886Z,97128.28
2022-10-26T18:02:24.951Z,97129.00
2022-10-26T18:05:21.864Z,97142.81
2022-10-26T18:08:19.022Z,97144.09
2022-10-26T18:11:26.562Z,97146.78
2022-10-26T18:14:24.480Z,97139.75
2022-10-26T18:17:21.394Z,97136.28
2022-10-26T18:20:19.982Z,97147.41
2022-10-26T18:23:16.778Z,97159.81
2022-10-26T18:26:23.935Z,97165.91
2022-10-26T18:29:20.768Z,97165.59
2022-10-26T18:32:17.612Z,97172.94
2022-10-26T18:35:14.578Z,97168.16
2022-10-26T18:38:11.357Z,97168.66
2022-10-26T18:41:11.843Z,97179.63
2022-10-26T18:44:09.495Z,97177.97
2022-10-26T18:47:06.368Z,97184.34
2022-10-26T18:50:03.233Z,97185.97
2022-10-26T18:53:00.034Z,97192.22
2022-10-26T18:56:02.247Z,97199.66
2022-10-26T18:59:00.534Z,97210.25
2022-10-26T19:01:57.445Z,97203.50
2022-10-26T19:04:58.663Z,97203.16
2022-10-26T19:07:55.480Z,97206.25
2022-10-26T19:10:52.290Z,97211.06
2022-10-26T19:13:50.272Z,97217.63
2022-10-26T19:16:52.967Z,97214.44
2022-10-26T19:19:49.813Z,97209.22
2022-10-26T19:22:46.614Z,97223.88
2022-10-26T19:25:43.413Z,97220.34
2022-10-26T19:28:40.595Z,97227.13
2022-10-26T19:31:37.804Z,97229.81
2022-10-26T19:34:34.655Z,97226.84
2022-10-26T19:37:31.497Z,97230.91
2022-10-26T19:40:28.303Z,97243.34
2022-10-26T19:43:30.537Z,97245.59
2022-10-26T19:46:31.005Z,97248.25
2022-10-26T19:49:27.992Z,97252.19
2022-10-26T19:52:24.811Z,97257.88
2022-10-26T19:55:21.688Z,97256.81
2022-10-26T19:58:18.521Z,97263.47
2022-10-26T20:01:15.811Z,97268.38
2022-10-26T20:04:13.228Z,97276.47
2022-10-26T20:07:10.125Z,97275.84
2022-10-26T20:10:07.482Z,97277.38
2022-10-26T20:13:04.303Z,97281.59
2022-10-26T20:16:01.121Z,97290.41
2022-10-26T20:19:01.539Z,97285.72
2022-10-26T20:21:58.511Z,97286.53
2022-10-26T20:24:55.322Z,97299.19
2022-10-26T20:27:52.439Z,97306.47
2022-10-26T20:30:49.922Z,97305.03
2022-10-26T20:33:51.692Z,97307.94
2022-10-26T20:36:48.483Z,97322.19
2022-10-26T20:39:45.609Z,97302.50
2022-10-26T20:42:42.864Z,97308.97
2022-10-26T20:45:40.021Z,97306.03
2022-10-26T20:48:38.670Z,97309.66
2022-10-26T20:52:19.498Z,97311.16
2022-10-26T20:55:53.294Z,97321.69
2022-10-26T20:58:56.163Z,97319.78
2022-10-26T21:01:53.070Z,97317.19
2022-10-26T21:04:49.969Z,97320.72
2022-10-26T21:07:47.054Z,97322.28
2022-10-26T21:10:44.025Z,97331.00
2022-10-26T21:13:41.545Z,97338.16
2022-10-26T21:16:38.353Z,97335.00
2022-10-26T21:19:35.497Z,97340.41
2022-10-26T21:22:32.301Z,97334.03
2022-10-26T21:25:29.283Z,97345.56
2022-10-26T21:28:32.762Z,97342.00
2022-10-26T21:31:30.004Z,97343.47
2022-10-26T21:34:26.840Z,97345.13
2022-10-26T21:37:26.629Z,97351.31
2022-10-26T21:40:23.767Z,97347.28
2022-10-26T21:43:20.582Z,97348.72
2022-10-26T21:46:19.418Z,97344.22
2022-10-26T21:49:16.239Z,97352.50
2022-10-26T21:52:13.077Z,97359.47
2022-10-26T21:55:09.897Z,97353.84
2022-10-26T21:58:06.756Z,97356.28
2022-10-26T22:01:13.576Z,97366.19
2022-10-26T22:04:11.194Z,97370.47
2022-10-26T22:07:08.068Z,97371.06
2022-10-26T22:10:12.899Z,97372.44
2022-10-26T22:13:09.735Z,97372.16
2022-10-26T22:16:23.387Z,97376.97
2022-10-26T22:19:20.270Z,97376.94
2022-10-26T22:22:17.086Z,97383.41
2022-10-26T22:25:14.012Z,97381.56
2022-10-26T22:28:10.832Z,97378.13
2022-10-26T22:31:12.818Z,97385.34
2022-10-26T22:34:16.384Z,97389.59
2022-10-26T22:37:13.231Z,97382.88
2022-10-26T22:40:11.090Z,97379.41
2022-10-26T22:43:07.889Z,97379.19
2022-10-26T22:46:14.471Z,97381.53
2022-10-26T22:49:11.944Z,97378.91
2022-10-26T22:52:08.807Z,97379.13
2022-10-26T22:55:06.187Z,97385.34
2022-10-26T22:58:03.006Z,97384.00
2022-10-26T23:01:05.910Z,97392.81
2022-10-26T23:04:03.094Z,97381.56
2022-10-26T23:06:59.927Z,97381.03
2022-10-26T23:09:56.711Z,97379.19
2022-10-26T23:12:54.057Z,97377.59
2022-10-26T23:15:50.963Z,97380.81
2022-10-26T23:18:48.337Z,97374.13
2022-10-26T23:21:45.181Z,97379.22
2022-10-26T23:24:42.002Z,97382.44
2022-10-26T23:27:38.873Z,97388.56
2022-10-26T23:30:36.603Z,97386.69
2022-10-26T23:33:34.368Z,97391.50
2022-10-26T23:36:31.198Z,97398.72
2022-10-26T23:39:27.997Z,97403.00
2022-10-26T23:42:24.848Z,97393.41
2022-10-26T23:45:22.256Z,97392.88
2022-10-26T23:48:19.535Z,97394.19
2022-10-26T23:51:16.331Z,97389.91
2022-10-26T23:54:13.185Z,97400.09
2022-10-26T23:57:10.043Z,97398.19
